Time;durP1;ratioP1;P1;durP2;ratioP2;P2;SDS_P1;SDS_P2;PMS_P1;PMS_P2;Temp;Humidity;BMP_temperature;BMP_pressure;BME280_temperature;BME280_humidity;BME280_pressure;Samples;Min_cycle;Max_cycle;Signal;HPM_P1;HPM_P2
2023/02/25 00:00:16;;;;;;;24.70;10.23;;;;;;;-0.37;82.49;97609.66;5072649;28;20056;-35
2023/02/25 00:02:46;;;;;;;26.77;11.32;;;;;;;-0.36;82.91;97615.56;5071160;28;20135;-33
2023/02/25 00:05:13;;;;;;;23.50;9.85;;;;;;;-0.27;82.61;97607.72;5038297;28;20401;-33
2023/02/25 00:07:39;;;;;;;22.65;10.68;;;;;;;-0.24;82.27;97612.72;5074108;28;20032;-33
2023/02/25 00:10:07;;;;;;;19.95;8.50;;;;;;;-0.31;82.88;97604.38;5022422;28;20052;-33
2023/02/25 00:12:33;;;;;;;22.27;10.23;;;;;;;-0.28;82.87;97604.31;5054299;28;20060;-33
2023/02/25 00:14:59;;;;;;;27.75;10.60;;;;;;;-0.43;82.78;97589.38;5087303;28;20527;-34
2023/02/25 00:17:24;;;;;;;22.25;10.18;;;;;;;-0.38;83.21;97597.75;5068335;28;20530;-34
2023/02/25 00:19:50;;;;;;;23.65;10.52;;;;;;;-0.32;82.78;97595.06;5071889;28;20040;-34
2023/02/25 00:22:19;;;;;;;20.63;9.57;;;;;;;-0.35;82.88;97594.28;5069707;28;20048;-34
2023/02/25 00:24:45;;;;;;;25.85;10.35;;;;;;;-0.31;83.19;97599.28;5069582;28;20904;-33
2023/02/25 00:27:11;;;;;;;21.00;9.32;;;;;;;-0.33;82.85;97598.50;5070317;28;20040;-33
2023/02/25 00:29:37;;;;;;;14.32;7.32;;;;;;;-0.35;83.52;97591.72;5071519;28;20055;-33
2023/02/25 00:32:03;;;;;;;23.48;10.18;;;;;;;-0.36;83.63;97582.41;5049909;28;20083;-33
2023/02/25 00:34:29;;;;;;;27.42;12.65;;;;;;;-0.26;83.82;97588.97;5050098;28;20491;-33
2023/02/25 00:36:55;;;;;;;20.83;8.85;;;;;;;-0.27;83.15;97577.91;5050798;28;20040;-32
2023/02/25 00:39:22;;;;;;;23.20;9.98;;;;;;;-0.29;83.37;97573.72;5071276;28;20074;-34
2023/02/25 00:41:48;;;;;;;21.63;10.07;;;;;;;-0.24;83.34;97579.53;5053113;28;20043;-37
2023/02/25 00:44:14;;;;;;;23.63;9.63;;;;;;;-0.20;83.09;97576.88;5069644;28;20520;-36
2023/02/25 00:46:40;;;;;;;21.27;9.55;;;;;;;-0.36;83.25;97551.75;5071433;28;20047;-35
2023/02/25 00:49:08;;;;;;;21.83;9.75;;;;;;;-0.32;83.37;97540.63;5071215;28;20040;-33
2023/02/25 00:51:34;;;;;;;22.52;10.10;;;;;;;-0.17;83.37;97574.25;5051803;28;20402;-37
2023/02/25 00:54:00;;;;;;;20.60;9.93;;;;;;;-0.21;83.45;97572.63;5069580;28;20048;-39
2023/02/25 00:56:25;;;;;;;21.40;10.18;;;;;;;-0.09;83.34;97577.44;5068084;28;20044;-34
2023/02/25 00:58:52;;;;;;;19.33;9.68;;;;;;;-0.11;83.10;97566.44;5053367;28;20040;-38
2023/02/25 01:01:28;;;;;;;21.65;9.43;;;;;;;-0.12;82.95;97574.97;5071053;28;20045;-39
2023/02/25 01:03:55;;;;;;;21.38;10.23;;;;;;;-0.16;83.17;97568.25;5052128;28;20044;-36
2023/02/25 01:06:22;;;;;;;16.83;8.95;;;;;;;-0.15;83.30;97569.09;5069719;28;20106;-36
2023/02/25 01:08:48;;;;;;;20.60;9.80;;;;;;;-0.20;83.48;97559.00;5069424;28;20052;-36
2023/02/25 01:11:20;;;;;;;21.30;10.13;;;;;;;-0.21;83.90;97566.72;5051926;28;20151;-36
2023/02/25 01:13:50;;;;;;;21.08;9.50;;;;;;;-0.33;83.63;97534.69;5036556;28;20052;-34
2023/02/25 01:16:19;;;;;;;21.60;9.38;;;;;;;-0.32;83.62;97523.59;5068445;28;20055;-36
2023/02/25 01:18:45;;;;;;;16.10;8.25;;;;;;;-0.16;83.75;97558.03;5070830;28;20036;-35
2023/02/25 01:21:24;;;;;;;20.55;10.27;;;;;;;-0.20;84.01;97558.16;5069009;28;20049;-40
2023/02/25 01:23:57;;;;;;;22.55;9.85;;;;;;;-0.14;83.89;97552.91;5069357;28;20067;-34
2023/02/25 01:26:25;;;;;;;20.73;9.52;;;;;;;-0.21;84.08;97559.88;5068798;28;20113;-34
2023/02/25 01:28:51;;;;;;;25.55;11.32;;;;;;;-0.32;84.40;97535.53;5102890;27;20044;-36
2023/02/25 01:31:23;;;;;;;20.50;10.07;;;;;;;-0.39;84.32;97521.22;5052441;28;20047;-36
2023/02/25 01:33:50;;;;;;;25.20;10.50;;;;;;;-0.15;84.65;97543.56;5068905;28;20090;-36
2023/02/25 01:36:16;;;;;;;23.15;10.38;;;;;;;-0.05;84.67;97550.94;5052367;28;20536;-35
2023/02/25 01:38:42;;;;;;;27.38;12.50;;;;;;;-0.21;84.53;97521.56;5066378;28;20044;-33
2023/02/25 01:41:08;;;;;;;24.40;10.93;;;;;;;0.10;84.32;97543.75;5068461;28;20563;-37
2023/02/25 01:43:34;;;;;;;21.13;9.43;;;;;;;0.12;84.09;97542.84;5068104;28;20503;-36
2023/02/25 01:46:00;;;;;;;24.27;11.43;;;;;;;0.15;83.96;97536.81;5068955;28;20130;-34
2023/02/25 01:48:32;;;;;;;21.75;10.50;;;;;;;0.08;84.30;97548.06;5068847;28;20044;-36
2023/02/25 01:51:01;;;;;;;25.10;12.18;;;;;;;0.06;83.83;97544.72;5069622;28;20036;-34
2023/02/25 01:53:40;;;;;;;25.98;10.75;;;;;;;0.05;84.20;97532.84;5045489;28;20033;-38
2023/02/25 01:56:10;;;;;;;17.48;9.35;;;;;;;0.11;84.17;97528.38;5075210;28;20048;-36
2023/02/25 01:58:36;;;;;;;;;;;;;;;0.09;84.03;97535.25;5068528;28;20055;-35
2023/02/25 02:01:02;;;;;;;21.70;9.30;;;;;;;-0.01;84.49;97536.41;5067759;28;20315;-35
2023/02/25 02:03:31;;;;;;;22.08;9.93;;;;;;;-0.04;84.77;97534.75;5067253;28;20041;-38
2023/02/25 02:06:27;;;;;;;;;;;;;;;-0.05;84.55;97527.97;5052284;28;20044;-35
2023/02/25 02:08:54;;;;;;;19.75;9.75;;;;;;;-0.04;84.93;97532.19;5061507;28;20358;-35
2023/02/25 02:11:20;;;;;;;19.23;9.07;;;;;;;0.03;84.92;97530.31;5034593;28;20036;-34
2023/02/25 02:13:52;;;;;;;21.88;10.20;;;;;;;0.04;84.91;97532.00;5067984;28;20123;-38
2023/02/25 02:16:43;;;;;;;21.27;10.05;;;;;;;0.06;84.55;97520.00;5068834;28;20048;-38
2023/02/25 02:19:33;;;;;;;21.80;10.45;;;;;;;0.21;84.40;97521.31;5068331;28;20073;-34
2023/02/25 02:22:26;;;;;;;20.27;10.07;;;;;;;0.14;84.49;97520.66;5068249;28;20131;-36
2023/02/25 02:25:29;;;;;;;24.23;11.02;;;;;;;0.18;84.44;97517.13;5069067;28;20487;-37
2023/02/25 02:28:04;;;;;;;21.75;10.20;;;;;;;0.11;84.68;97514.75;5067294;28;20047;-36
2023/02/25 02:30:38;;;;;;;21.58;9.55;;;;;;;0.11;85.02;97507.94;5069283;28;20073;-37
2023/02/25 02:33:19;;;;;;;20.15;9.77;;;;;;;0.05;85.14;97510.69;5066365;28;20087;-35
2023/02/25 02:36:01;;;;;;;17.90;8.98;;;;;;;0.07;85.02;97508.91;5050790;28;20056;-34
2023/02/25 02:38:36;;;;;;;21.77;9.95;;;;;;;0.08;85.09;97510.59;5065652;28;20064;-35
2023/02/25 02:41:24;;;;;;;22.65;10.15;;;;;;;0.08;85.09;97508.03;5065799;28;20072;-36
2023/02/25 02:44:14;;;;;;;27.45;11.48;;;;;;;0.06;85.33;97503.84;5047140;28;20534;-33
2023/02/25 02:46:52;;;;;;;18.85;9.07;;;;;;;0.07;85.37;97508.06;5071492;28;20499;-36
2023/02/25 02:49:25;;;;;;;24.02;10.88;;;;;;;0.10;85.39;97495.22;5052263;28;20512;-35
2023/02/25 02:51:57;;;;;;;20.63;10.65;;;;;;;0.10;85.76;97500.34;5098844;28;20068;-35
2023/02/25 02:54:31;;;;;;;21.67;10.85;;;;;;;0.10;85.58;97500.34;5067298;28;20397;-34
2023/02/25 02:57:00;;;;;;;15.32;7.07;;;;;;;0.16;85.56;97501.00;5049347;28;20040;-37
2023/02/25 02:59:31;;;;;;;25.50;10.60;;;;;;;0.11;85.82;97502.84;5067265;28;20040;-39
2023/02/25 03:02:05;;;;;;;23.75;10.88;;;;;;;0.10;85.98;97496.06;5050033;28;20052;-35
2023/02/25 03:04:37;;;;;;;19.27;9.63;;;;;;;0.20;85.73;97494.09;5051260;28;20036;-33
2023/02/25 03:07:08;;;;;;;19.80;10.23;;;;;;;0.19;85.75;97492.41;5068690;28;20049;-38
2023/02/25 03:09:56;;;;;;;17.40;8.32;;;;;;;0.29;85.68;97491.28;5066970;28;20442;-34
2023/02/25 03:12:23;;;;;;;22.55;10.88;;;;;;;0.30;85.28;97498.91;5050191;28;20531;-34
2023/02/25 03:14:49;;;;;;;21.90;10.73;;;;;;;0.12;85.48;97455.97;5066701;28;20119;-38
2023/02/25 03:17:14;;;;;;;19.95;9.63;;;;;;;0.27;85.51;97485.34;5067146;28;20393;-36
2023/02/25 03:19:44;;;;;;;22.08;10.50;;;;;;;0.11;85.45;97471.34;5067188;28;20479;-36
2023/02/25 03:22:13;;;;;;;24.20;10.38;;;;;;;0.27;85.70;97482.81;5066573;28;20052;-36
2023/02/25 03:24:45;;;;;;;20.70;9.82;;;;;;;0.32;85.34;97481.78;5066715;28;20127;-33
2023/02/25 03:27:34;;;;;;;21.55;9.30;;;;;;;0.41;85.13;97485.81;5066588;28;20396;-38
2023/02/25 03:30:21;;;;;;;15.60;7.50;;;;;;;0.04;84.72;97432.38;5067155;28;20068;-34
2023/02/25 03:32:50;;;;;;;16.30;8.77;;;;;;;0.34;84.74;97479.19;5083119;28;20519;-34
2023/02/25 03:35:18;;;;;;;20.77;9.27;;;;;;;0.36;85.02;97487.66;5046486;28;20048;-35
2023/02/25 03:37:47;;;;;;;18.75;9.15;;;;;;;0.35;84.85;97486.81;5030247;28;20424;-35
2023/02/25 03:40:14;;;;;;;17.15;8.57;;;;;;;0.17;84.88;97454.13;5068663;28;20056;-35
2023/02/25 03:42:45;;;;;;;17.65;8.85;;;;;;;0.31;84.71;97485.25;5049794;28;20509;-38
2023/02/25 03:45:12;;;;;;;20.17;9.90;;;;;;;0.30;84.85;97482.72;5066826;28;20568;-35
2023/02/25 03:47:39;;;;;;;16.25;8.48;;;;;;;0.34;84.49;97482.59;5066784;28;20113;-34
2023/02/25 03:50:11;;;;;;;20.67;10.30;;;;;;;0.29;84.98;97486.16;5050401;28;20124;-36
2023/02/25 03:52:39;;;;;;;19.73;9.18;;;;;;;0.23;84.95;97460.78;5047423;28;20099;-36
2023/02/25 03:55:13;;;;;;;20.77;10.27;;;;;;;0.37;85.08;97469.72;5066829;28;20051;-36
2023/02/25 03:57:41;;;;;;;19.85;9.48;;;;;;;0.44;84.69;97472.94;5049600;28;20047;-36
2023/02/25 04:00:17;;;;;;;16.27;8.60;;;;;;;0.27;84.23;97445.31;5068972;28;20044;-38
2023/02/25 04:02:46;;;;;;;22.90;10.90;;;;;;;0.40;84.82;97468.81;5065261;28;20052;-40
2023/02/25 04:05:13;;;;;;;22.00;9.65;;;;;;;0.41;84.81;97466.22;5066357;28;20040;-37
2023/02/25 04:07:39;;;;;;;17.35;9.40;;;;;;;0.42;84.63;97472.97;5066522;28;20054;-39
2023/02/25 04:10:07;;;;;;;15.05;7.80;;;;;;;0.56;84.61;97469.19;5033335;28;20663;-34
2023/02/25 04:12:33;;;;;;;17.02;9.10;;;;;;;0.21;84.48;97414.84;5066582;28;20476;-37
2023/02/25 04:14:59;;;;;;;15.15;6.85;;;;;;;0.60;84.52;97457.97;5065984;28;20339;-35
2023/02/25 04:17:25;;;;;;;16.15;8.43;;;;;;;0.61;84.54;97457.94;5083329;28;20141;-37
2023/02/25 04:19:51;;;;;;;17.10;8.45;;;;;;;0.64;84.38;97462.94;5083237;28;20527;-37
2023/02/25 04:22:17;;;;;;;18.73;9.00;;;;;;;0.64;84.52;97469.78;5067784;28;20051;-35
2023/02/25 04:24:43;;;;;;;16.63;8.10;;;;;;;0.64;84.61;97470.63;5090459;28;20419;-36
2023/02/25 04:27:08;;;;;;;11.18;5.85;;;;;;;0.56;84.90;97471.75;5079850;28;20037;-34
2023/02/25 04:29:35;;;;;;;21.80;9.80;;;;;;;0.56;85.00;97462.34;5071045;28;20036;-35
2023/02/25 04:32:00;;;;;;;13.43;7.13;;;;;;;0.57;85.09;97461.47;5068174;28;20032;-36
2023/02/25 04:34:26;;;;;;;19.83;9.70;;;;;;;0.56;84.95;97470.03;5070683;28;20048;-37
2023/02/25 04:36:52;;;;;;;17.15;6.97;;;;;;;0.55;85.77;97463.22;5069226;28;20121;-37
2023/02/25 04:39:18;;;;;;;18.33;9.13;;;;;;;0.56;85.79;97466.63;5066799;28;20040;-38
2023/02/25 04:41:44;;;;;;;15.93;7.63;;;;;;;0.54;85.86;97469.22;5089386;28;20044;-37
2023/02/25 04:44:11;;;;;;;19.45;9.35;;;;;;;0.59;86.45;97467.38;5071230;28;20150;-34
2023/02/25 04:46:39;;;;;;;19.20;9.50;;;;;;;0.64;86.21;97472.34;5055220;28;20155;-33
2023/02/25 04:49:06;;;;;;;19.30;9.10;;;;;;;0.68;86.04;97474.75;5090080;28;20157;-35
2023/02/25 04:51:32;;;;;;;18.73;9.02;;;;;;;0.67;86.41;97472.25;5065692;28;20040;-36
2023/02/25 04:53:58;;;;;;;16.83;8.50;;;;;;;0.66;86.32;97476.53;5068614;28;20036;-38
2023/02/25 04:56:24;;;;;;;23.23;9.52;;;;;;;0.43;86.46;97431.22;5079553;28;20055;-33
2023/02/25 04:58:50;;;;;;;19.50;8.20;;;;;;;0.73;86.31;97479.75;5051479;28;20036;-40
2023/02/25 05:01:16;;;;;;;16.33;8.52;;;;;;;0.81;86.26;97480.34;5069548;28;20044;-38
2023/02/25 05:03:42;;;;;;;17.38;9.38;;;;;;;0.94;85.88;97491.03;5067197;28;20040;-37
2023/02/25 05:06:08;;;;;;;15.38;6.30;;;;;;;1.01;85.49;97487.38;5069291;28;20542;-39
2023/02/25 05:08:35;;;;;;;18.60;8.98;;;;;;;0.98;85.65;97482.38;5081342;28;20044;-39
2023/02/25 05:11:02;;;;;;;22.45;8.48;;;;;;;0.96;85.58;97479.00;5069248;28;20101;-34
2023/02/25 05:13:28;;;;;;;21.52;10.05;;;;;;;0.98;85.66;97472.97;5086115;28;20055;-34
2023/02/25 05:16:09;;;;;;;21.23;10.20;;;;;;;1.10;86.09;97476.88;5069297;28;20105;-38
2023/02/25 05:18:39;;;;;;;21.17;10.60;;;;;;;1.11;85.94;97478.53;5068518;28;20195;-34
2023/02/25 05:21:11;;;;;;;18.52;9.02;;;;;;;1.15;85.69;97475.81;5084858;28;20048;-38
2023/02/25 05:23:41;;;;;;;18.42;9.82;;;;;;;1.12;85.74;97475.09;5052336;28;20116;-37
2023/02/25 05:26:08;;;;;;;22.40;10.90;;;;;;;1.15;85.82;97475.81;5085827;28;20507;-35
2023/02/25 05:28:35;;;;;;;20.92;10.55;;;;;;;1.24;85.98;97483.22;5048521;28;20048;-37
2023/02/25 05:31:10;;;;;;;19.48;9.82;;;;;;;1.31;85.05;97480.47;5050448;28;20073;-36
2023/02/25 05:33:37;;;;;;;23.85;11.13;;;;;;;1.24;85.52;97488.34;5048935;28;20579;-37
2023/02/25 05:36:08;;;;;;;25.73;11.10;;;;;;;1.15;85.47;97501.41;5049728;28;20075;-37
2023/02/25 05:38:34;;;;;;;21.48;9.18;;;;;;;1.13;85.91;97490.41;5022359;28;20478;-34
2023/02/25 05:41:01;;;;;;;23.98;10.27;;;;;;;1.14;85.98;97489.53;5052172;28;20048;-47
2023/02/25 05:43:27;;;;;;;18.88;9.10;;;;;;;1.15;86.17;97486.03;5068709;28;20041;-38
2023/02/25 05:45:58;;;;;;;22.25;10.20;;;;;;;1.15;86.50;97490.34;5051269;28;20037;-36
2023/02/25 05:48:24;;;;;;;18.98;10.13;;;;;;;1.16;86.74;97495.41;5067801;28;20652;-33
2023/02/25 05:50:50;;;;;;;17.48;8.43;;;;;;;1.17;86.63;97491.13;5067686;28;20063;-34
2023/02/25 05:53:19;;;;;;;20.40;9.57;;;;;;;1.23;86.64;97493.50;5067447;28;20072;-40
2023/02/25 05:55:45;;;;;;;15.80;7.38;;;;;;;1.24;86.95;97483.22;5069232;28;20051;-34
2023/02/25 05:58:12;;;;;;;25.40;10.00;;;;;;;1.27;86.60;97485.66;5066848;28;20071;-36
2023/02/25 06:00:38;;;;;;;14.60;7.75;;;;;;;1.34;86.57;97485.47;5083004;28;20048;-37
2023/02/25 06:03:04;;;;;;;17.05;8.68;;;;;;;1.30;86.54;97476.22;5069016;28;20139;-39
2023/02/25 06:05:30;;;;;;;21.60;10.73;;;;;;;1.53;86.16;97507.00;5065985;28;20147;-37
2023/02/25 06:07:57;;;;;;;18.15;8.88;;;;;;;1.51;86.09;97508.78;5069521;28;20061;-39
2023/02/25 06:10:37;;;;;;;20.80;9.20;;;;;;;1.49;85.61;97508.00;5068300;28;20056;-39
2023/02/25 06:13:10;;;;;;;19.45;8.02;;;;;;;1.47;85.75;97504.63;5053016;28;20043;-38
2023/02/25 06:15:40;;;;;;;19.08;8.63;;;;;;;1.46;86.15;97485.91;5053181;28;20041;-43
2023/02/25 06:18:06;;;;;;;;;;;;;;;1.53;85.97;97497.59;5059914;28;20181;-37
2023/02/25 06:20:34;;;;;;;11.63;6.22;;;;;;;1.41;85.86;97481.84;5067212;28;20410;-40
2023/02/25 06:23:03;;;;;;;16.88;7.78;;;;;;;1.61;86.00;97498.19;5068262;28;20044;-36
2023/02/25 06:25:29;;;;;;;19.90;10.27;;;;;;;1.67;85.69;97497.97;5067152;28;20040;-35
2023/02/25 06:27:56;;;;;;;14.68;8.10;;;;;;;1.74;85.45;97496.03;5065023;28;20044;-40
2023/02/25 06:30:22;;;;;;;12.95;7.18;;;;;;;1.47;85.30;97444.03;5046218;28;20045;-37
2023/02/25 06:32:48;;;;;;;23.48;11.55;;;;;;;1.74;85.26;97470.44;5071732;28;20054;-37
2023/02/25 06:35:14;;;;;;;17.38;8.75;;;;;;;1.94;85.10;97493.63;5066970;28;20725;-40
2023/02/25 06:37:40;;;;;;;14.60;8.57;;;;;;;1.89;85.01;97492.09;5066575;28;20554;-38
2023/02/25 06:40:06;;;;;;;14.52;8.50;;;;;;;2.02;84.84;97489.06;5048635;28;20037;-35
2023/02/25 06:42:32;;;;;;;17.10;9.65;;;;;;;2.18;84.51;97486.81;5066962;28;20037;-39
2023/02/25 06:44:58;;;;;;;16.83;7.97;;;;;;;2.10;83.62;97471.69;5068398;28;20102;-36
2023/02/25 06:47:24;;;;;;;13.00;7.35;;;;;;;2.13;83.31;97452.81;5066855;28;20036;-36
2023/02/25 06:49:50;;;;;;;15.60;7.10;;;;;;;2.31;83.05;97500.00;5068157;28;20044;-41
2023/02/25 06:52:16;;;;;;;14.23;7.95;;;;;;;2.25;82.65;97506.16;5067946;28;20254;-38
2023/02/25 06:54:42;;;;;;;17.58;8.85;;;;;;;2.31;82.71;97500.00;5066541;28;20430;-37
2023/02/25 06:57:08;;;;;;;20.95;9.23;;;;;;;2.32;82.29;97504.22;5066824;28;20044;-34
2023/02/25 06:59:34;;;;;;;16.17;7.35;;;;;;;2.30;82.27;97509.44;5082926;28;20044;-39
2023/02/25 07:02:01;;;;;;;13.48;6.85;;;;;;;2.23;82.67;97507.13;5068451;28;20097;-38
2023/02/25 07:04:26;;;;;;;17.05;7.25;;;;;;;2.06;82.90;97479.53;5067013;28;20592;-37
2023/02/25 07:06:52;;;;;;;20.70;8.30;;;;;;;2.30;82.79;97494.06;5068542;28;20040;-37
2023/02/25 07:09:19;;;;;;;13.32;6.30;;;;;;;2.38;82.37;97501.44;5067161;28;20056;-40
2023/02/25 07:11:44;;;;;;;11.50;6.40;;;;;;;2.40;82.44;97490.25;5065307;28;20070;-35
2023/02/25 07:14:13;;;;;;;16.02;7.63;;;;;;;2.43;82.30;97495.25;5048567;28;20040;-36
2023/02/25 07:16:38;;;;;;;11.07;5.68;;;;;;;2.63;82.11;97506.50;5066496;28;20048;-42
2023/02/25 07:19:04;;;;;;;14.77;7.05;;;;;;;2.58;81.57;97501.53;5067287;28;20032;-38
2023/02/25 07:21:30;;;;;;;16.95;7.22;;;;;;;2.66;81.39;97499.53;5068288;28;20043;-38
2023/02/25 07:23:57;;;;;;;18.13;7.72;;;;;;;2.74;81.32;97505.22;5066690;28;20052;-38
2023/02/25 07:26:27;;;;;;;15.30;8.73;;;;;;;2.89;81.09;97490.94;5066637;28;20117;-37
2023/02/25 07:28:57;;;;;;;12.68;7.13;;;;;;;2.84;80.40;97493.69;5065134;28;20044;-42
2023/02/25 07:31:24;;;;;;;13.15;7.32;;;;;;;2.90;80.42;97498.59;5033381;28;20612;-38
2023/02/25 07:33:51;;;;;;;12.35;6.35;;;;;;;2.89;80.33;97506.34;5063607;28;20550;-39
2023/02/25 07:36:17;;;;;;;10.32;6.60;;;;;;;2.87;80.39;97500.47;5039573;28;20547;-37
2023/02/25 07:38:43;;;;;;;10.30;5.40;;;;;;;2.87;80.30;97498.72;5068079;28;20151;-38
2023/02/25 07:41:11;;;;;;;13.80;6.40;;;;;;;2.85;80.21;97508.19;5045964;28;20432;-41
2023/02/25 07:43:38;;;;;;;20.27;7.07;;;;;;;2.92;80.13;97521.63;5061258;28;20170;-39
2023/02/25 07:46:05;;;;;;;13.60;7.18;;;;;;;2.96;80.17;97508.63;5058835;28;20090;-37
2023/02/25 07:48:31;;;;;;;14.73;6.90;;;;;;;2.96;80.20;97518.91;5059447;28;20117;-40
2023/02/25 07:51:07;;;;;;;14.52;7.65;;;;;;;3.05;80.15;97515.13;5060734;28;20102;-37
2023/02/25 07:53:33;;;;;;;15.15;7.18;;;;;;;3.33;79.70;97522.56;5063375;28;20048;-37
2023/02/25 07:55:59;;;;;;;14.70;6.47;;;;;;;3.32;78.91;97495.22;5067054;28;20047;-34
2023/02/25 07:58:27;;;;;;;10.65;6.20;;;;;;;3.30;78.17;97490.16;5053689;28;20036;-41
2023/02/25 08:00:54;;;;;;;12.27;6.75;;;;;;;3.40;78.45;97521.44;5085208;28;20139;-41
2023/02/25 08:03:20;;;;;;;11.80;6.38;;;;;;;3.40;78.36;97521.44;5065805;28;20097;-37
2023/02/25 08:05:49;;;;;;;9.18;6.07;;;;;;;3.37;78.20;97516.41;5079686;28;20049;-39
2023/02/25 08:08:15;;;;;;;9.43;5.93;;;;;;;3.26;78.29;97523.72;5064203;28;20074;-34
2023/02/25 08:10:42;;;;;;;10.02;6.13;;;;;;;3.19;78.71;97517.97;5081494;28;20790;-35
2023/02/25 08:13:08;;;;;;;20.17;6.90;;;;;;;3.20;79.24;97521.38;5079947;28;20035;-34
2023/02/25 08:15:34;;;;;;;14.73;7.32;;;;;;;3.25;79.23;97525.44;5062602;28;20045;-34
2023/02/25 08:18:00;;;;;;;17.42;7.40;;;;;;;3.09;79.20;97495.31;5068134;28;20109;-36
2023/02/25 08:20:25;;;;;;;15.75;7.25;;;;;;;3.26;79.64;97532.25;5065292;28;20535;-36
2023/02/25 08:22:51;;;;;;;13.38;7.18;;;;;;;3.26;79.51;97526.28;5061412;28;20565;-36
2023/02/25 08:25:17;;;;;;;16.20;7.32;;;;;;;3.26;79.45;97526.28;5058369;28;20593;-36
2023/02/25 08:27:43;;;;;;;14.52;7.28;;;;;;;3.25;80.09;97528.00;5066907;28;20324;-36
2023/02/25 08:30:10;;;;;;;15.25;7.22;;;;;;;3.24;80.28;97533.22;5064158;28;20043;-35
2023/02/25 08:32:36;;;;;;;15.38;7.25;;;;;;;3.29;80.23;97539.00;5056619;28;20496;-35
2023/02/25 08:35:03;;;;;;;11.35;7.13;;;;;;;3.30;79.72;97538.09;5047986;28;20089;-35
2023/02/25 08:37:29;;;;;;;17.38;8.15;;;;;;;3.35;80.00;97538.75;5056351;28;20036;-35
2023/02/25 08:39:56;;;;;;;14.93;6.68;;;;;;;3.36;79.92;97538.69;5053515;28;20052;-36
2023/02/25 08:42:22;;;;;;;15.02;6.95;;;;;;;3.33;80.27;97531.13;5057602;28;20774;-36
2023/02/25 08:44:49;;;;;;;15.85;7.63;;;;;;;3.36;80.66;97523.28;5060347;28;20119;-34
2023/02/25 08:47:15;;;;;;;11.27;6.93;;;;;;;3.37;80.60;97501.00;5062969;28;20478;-35
2023/02/25 08:49:42;;;;;;;15.38;6.93;;;;;;;3.44;80.78;97525.56;5066982;28;20040;-35
2023/02/25 08:52:10;;;;;;;14.25;7.53;;;;;;;3.41;80.96;97521.38;5059792;28;20499;-36
2023/02/25 08:54:37;;;;;;;14.50;7.30;;;;;;;3.27;81.42;97492.84;5059748;28;20056;-35
2023/02/25 08:57:04;;;;;;;17.23;7.63;;;;;;;3.43;81.75;97531.59;5063849;28;20041;-35
2023/02/25 08:59:34;;;;;;;17.48;7.88;;;;;;;3.29;82.38;97528.75;5069482;28;20451;-35
2023/02/25 09:02:11;;;;;;;21.75;8.20;;;;;;;3.26;83.48;97533.97;5054533;28;20048;-35
2023/02/25 09:04:37;;;;;;;18.92;8.57;;;;;;;3.30;84.02;97527.81;5030173;28;20153;-35
2023/02/25 09:07:03;;;;;;;16.20;7.35;;;;;;;3.44;84.17;97525.56;5050785;28;20124;-35
2023/02/25 09:09:29;;;;;;;11.73;7.13;;;;;;;3.26;84.72;97521.97;5052430;28;20063;-36
2023/02/25 09:11:55;;;;;;;13.40;7.10;;;;;;;3.40;86.06;97524.81;5066635;28;20048;-35
2023/02/25 09:14:21;;;;;;;19.08;7.82;;;;;;;3.27;85.83;97487.72;5053686;28;22060;-35
2023/02/25 09:16:47;;;;;;;17.08;8.43;;;;;;;3.53;85.98;97525.16;5055023;28;20559;-35
2023/02/25 09:19:16;;;;;;;13.50;5.60;;;;;;;3.52;85.38;97533.78;5070797;28;20538;-35
2023/02/25 09:21:49;;;;;;;20.23;7.95;;;;;;;3.48;86.25;97537.38;5039839;28;20041;-34
2023/02/25 09:24:15;;;;;;;;;;;;;;;3.70;85.98;97540.75;5053060;28;20139;-34
2023/02/25 09:26:41;;;;;;;16.50;6.60;;;;;;;3.40;86.30;97511.97;5066755;28;19923;-35
2023/02/25 09:29:08;;;;;;;15.60;7.20;;;;;;;3.62;87.25;97535.06;5064143;28;20052;-35
2023/02/25 09:31:36;;;;;;;15.30;6.85;;;;;;;3.44;86.30;97533.25;5066132;28;20041;-35
2023/02/25 09:34:07;;;;;;;12.60;7.00;;;;;;;3.26;86.76;97529.69;5068949;28;20032;-36
2023/02/25 09:36:33;;;;;;;10.48;6.35;;;;;;;3.37;86.76;97531.81;5047561;28;20532;-35
2023/02/25 09:39:00;;;;;;;18.77;7.35;;;;;;;3.25;87.03;97537.44;5059856;28;20039;-35
2023/02/25 09:41:51;;;;;;;11.80;5.57;;;;;;;3.20;87.36;97527.34;5069878;28;20037;-45
2023/02/25 09:44:29;;;;;;;15.93;8.02;;;;;;;3.16;88.95;97528.38;5068397;28;20040;-34
2023/02/25 09:47:19;;;;;;;11.18;6.20;;;;;;;3.08;88.68;97498.78;5048640;28;20132;-36
2023/02/25 09:50:05;;;;;;;;;;;;;;;3.33;88.67;97530.28;5052047;28;20041;-35
2023/02/25 09:52:34;;;;;;;9.07;4.90;;;;;;;3.42;88.30;97533.31;5047456;28;19924;-36
2023/02/25 09:55:22;;;;;;;14.20;7.35;;;;;;;3.12;88.73;97510.59;5068058;28;20032;-37
2023/02/25 09:58:10;;;;;;;16.30;6.97;;;;;;;3.21;89.57;97539.31;5068345;28;20093;-37
2023/02/25 10:00:45;;;;;;;10.80;5.55;;;;;;;3.18;89.77;97536.03;5069200;28;20044;-36
2023/02/25 10:03:20;;;;;;;9.98;6.03;;;;;;;3.01;90.06;97512.75;5068118;28;20071;-37
2023/02/25 10:05:52;;;;;;;13.05;6.90;;;;;;;3.12;90.07;97533.69;5051759;28;20044;-36
2023/02/25 10:08:37;;;;;;;15.68;7.40;;;;;;;3.13;90.66;97535.38;5051339;28;20040;-36
2023/02/25 10:11:08;;;;;;;12.07;7.40;;;;;;;3.12;91.27;97537.09;5068817;28;20054;-38
2023/02/25 10:13:39;;;;;;;10.40;5.85;;;;;;;3.09;91.60;97534.63;5067922;28;20063;-36
2023/02/25 10:16:19;;;;;;;15.07;7.05;;;;;;;3.21;92.81;97541.88;5069023;28;20044;-35
2023/02/25 10:19:00;;;;;;;14.02;6.65;;;;;;;3.36;92.36;97533.56;5068690;28;20056;-37
2023/02/25 10:21:56;;;;;;;13.15;7.07;;;;;;;3.22;92.65;97514.47;5067478;28;20036;-36
2023/02/25 10:24:31;;;;;;;15.27;7.00;;;;;;;3.44;92.98;97532.41;5050637;28;20159;-38
2023/02/25 10:27:36;;;;;;;17.80;7.05;;;;;;;3.32;92.72;97547.41;5069105;28;20040;-36
2023/02/25 10:30:09;;;;;;;14.93;6.43;;;;;;;3.23;93.60;97545.22;5011206;28;20060;-36
2023/02/25 10:32:36;;;;;;;11.13;6.00;;;;;;;3.32;94.67;97546.59;5062604;28;20534;-37
2023/02/25 10:35:19;;;;;;;10.15;5.82;;;;;;;3.21;94.51;97538.47;5050767;28;20086;-36
2023/02/25 10:37:45;;;;;;;6.50;3.65;;;;;;;3.15;94.63;97539.53;5067684;28;20047;-36
2023/02/25 10:40:17;;;;;;;14.02;5.90;;;;;;;3.12;95.77;97531.13;5068772;28;20044;-36
2023/02/25 10:42:48;;;;;;;12.10;5.10;;;;;;;3.19;96.05;97527.44;5068790;28;20040;-36
2023/02/25 10:45:32;;;;;;;9.77;5.90;;;;;;;3.29;96.79;97531.31;5067023;28;20089;-37
2023/02/25 10:48:20;;;;;;;10.35;5.38;;;;;;;3.28;95.81;97534.75;5067370;28;20158;-36
2023/02/25 10:51:27;;;;;;;13.38;5.78;;;;;;;3.26;95.35;97527.13;5067095;28;20538;-36
2023/02/25 10:53:55;;;;;;;9.45;4.78;;;;;;;3.33;94.77;97536.25;5009889;28;20052;-35
2023/02/25 10:56:26;;;;;;;13.15;6.10;;;;;;;3.40;94.55;97537.66;5009799;28;20048;-35
2023/02/25 10:59:04;;;;;;;17.30;7.82;;;;;;;3.52;94.26;97538.91;5009817;28;20139;-36
2023/02/25 11:01:43;;;;;;;11.23;6.50;;;;;;;3.63;94.25;97539.31;5025464;28;20731;-36
2023/02/25 11:04:14;;;;;;;10.25;5.07;;;;;;;3.52;93.20;97548.34;5026107;28;20132;-36
2023/02/25 11:06:42;;;;;;;10.35;5.50;;;;;;;3.43;93.50;97547.00;4993259;28;20184;-36
2023/02/25 11:09:20;;;;;;;9.70;5.47;;;;;;;3.29;93.15;97544.16;5026009;28;20057;-35
2023/02/25 11:11:57;;;;;;;8.55;4.70;;;;;;;3.18;93.24;97543.72;5025355;28;20196;-37
2023/02/25 11:14:31;;;;;;;7.32;4.82;;;;;;;3.17;93.94;97550.59;5010340;28;20033;-35
2023/02/25 11:17:14;;;;;;;8.30;4.68;;;;;;;3.06;94.32;97516.81;5005822;28;20114;-45
2023/02/25 11:19:44;;;;;;;11.65;5.20;;;;;;;3.12;94.52;97521.69;5008245;28;20054;-36
2023/02/25 11:22:16;;;;;;;8.88;4.60;;;;;;;3.23;94.72;97516.97;5023667;28;20041;-39
2023/02/25 11:24:45;;;;;;;9.43;6.80;;;;;;;3.29;95.29;97516.75;5053392;28;20048;-36
2023/02/25 11:27:30;;;;;;;;;;;;;;;3.47;94.51;97542.56;5075987;28;20036;-35
2023/02/25 11:30:04;;;;;;;12.25;5.57;;;;;;;3.36;94.05;97541.25;5067001;28;19965;-35
2023/02/25 11:32:32;;;;;;;13.38;6.13;;;;;;;3.30;94.04;97515.81;5065034;28;20043;-36
2023/02/25 11:35:07;;;;;;;13.63;5.68;;;;;;;3.49;93.38;97536.47;5064204;28;20131;-37
2023/02/25 11:37:48;;;;;;;16.00;5.65;;;;;;;3.59;92.80;97539.50;5049010;28;20472;-37
2023/02/25 11:40:22;;;;;;;10.07;5.13;;;;;;;3.56;92.57;97534.50;5068212;28;20070;-36
2023/02/25 11:43:02;;;;;;;11.77;5.75;;;;;;;3.52;92.78;97535.50;5065191;28;20527;-36
2023/02/25 11:45:29;;;;;;;12.38;5.90;;;;;;;3.52;92.52;97520.94;5064840;28;20571;-36